Le Mans-Arnage Airport

Airport
ICAO code: 
LFRM
IATA Code: 
LME
Summary
ICAO Region: 
EUR
Territory: 
Location: 
, Pays de la Loire
Serving: 
Le Mans
Elevation: 
194 ft
Coordinates: 
Aerial View: 
47° 56' 55" N, 0° 12' 6.001" E
Metar
Observation
LFRM 301930Z AUTO 21007KT 180V240 9999 FEW023 OVC034 09/08 Q1018
Station
Le Mans
Date/Time
2021-11-30 19:30:00
Wind direction
210°
Wind speed
07 kts
Lowest cloud amount
few clouds
Temperature
9°C
Dew point
8°C
Humidity
93%
QNH
1018 hPa
Weather condition
n/a

Runways

Designator Length Width Surface Rops
2/20 1420 30 ASP No/No
Airport map: 
Aerial View: 

SKYbrary Partners:

Safety knowledge contributed by: